Time;durP1;ratioP1;P1;durP2;ratioP2;P2;SDS_P1;SDS_P2;PMS_P1;PMS_P2;Temp;Humidity;BMP_temperature;BMP_pressure;BME280_temperature;BME280_humidity;BME280_pressure;Samples;Min_cycle;Max_cycle;Signal;HPM_P1;HPM_P2
2022/12/20 00:00:52;;;;;;;10.80;6.60;;;;;;;;;;5057369;28;20028;-89
2022/12/20 00:03:19;;;;;;;10.75;6.18;;;;;;;;;;5041711;28;20024;-89
2022/12/20 00:05:48;;;;;;;12.25;6.72;;;;;;;;;;5040531;28;20051;-90
2022/12/20 00:08:15;;;;;;;10.27;6.07;;;;;;;;;;5053775;28;20097;-89
2022/12/20 00:10:44;;;;;;;13.13;6.30;;;;;;;;;;5039072;28;20027;-89
2022/12/20 00:13:13;;;;;;;14.80;6.78;;;;;;;;;;5039386;28;20028;-89
2022/12/20 00:15:39;;;;;;;10.55;6.25;;;;;;;;;;5062734;28;20040;-90
2022/12/20 00:18:20;;;;;;;10.85;5.63;;;;;;;;;;5043416;28;20028;-89
2022/12/20 00:20:45;;;;;;;11.95;6.57;;;;;;;;;;5041577;28;20025;-89
2022/12/20 00:23:11;;;;;;;20.55;6.45;;;;;;;;;;5039938;28;20025;-89
2022/12/20 00:25:36;;;;;;;17.95;7.30;;;;;;;;;;5041139;28;21910;-89
2022/12/20 00:29:07;;;;;;;12.27;6.38;;;;;;;;;;5044108;28;20020;-90
2022/12/20 00:31:32;;;;;;;10.50;5.50;;;;;;;;;;5066904;28;20009;-91
2022/12/20 00:34:01;;;;;;;10.57;5.80;;;;;;;;;;5071658;28;20033;-93
2022/12/20 00:36:29;;;;;;;10.00;5.30;;;;;;;;;;5073842;28;20021;-90
2022/12/20 00:39:56;;;;;;;11.55;6.15;;;;;;;;;;5052573;28;20036;-90
2022/12/20 00:42:21;;;;;;;7.90;5.55;;;;;;;;;;5004694;23;20068;-84
2022/12/20 00:44:53;;;;;;;8.25;5.10;;;;;;;;;;5040494;28;20116;-83
2022/12/20 00:47:18;;;;;;;9.63;5.80;;;;;;;;;;5083423;28;20032;-82
2022/12/20 00:49:43;;;;;;;10.90;5.82;;;;;;;;;;5091765;28;20035;-82
2022/12/20 00:52:09;;;;;;;89.80;26.48;;;;;;;;;;5092324;28;20024;-83
2022/12/20 00:54:37;;;;;;;32.42;13.38;;;;;;;;;;5073048;28;20021;-81
2022/12/20 00:57:03;;;;;;;32.20;10.35;;;;;;;;;;5074933;28;20065;-84
2022/12/20 00:59:43;;;;;;;23.67;8.35;;;;;;;;;;5077237;28;20064;-84
2022/12/20 01:02:08;;;;;;;11.48;6.45;;;;;;;;;;5076810;28;20028;-83
2022/12/20 01:04:34;;;;;;;9.95;5.90;;;;;;;;;;5095238;28;20192;-83
2022/12/20 01:07:02;;;;;;;11.40;7.03;;;;;;;;;;5095673;28;20027;-83
2022/12/20 01:09:28;;;;;;;9.25;6.05;;;;;;;;;;5062501;28;20027;-82
2022/12/20 01:11:59;;;;;;;12.43;6.38;;;;;;;;;;5054673;22;20032;-83
2022/12/20 01:14:25;;;;;;;10.45;6.30;;;;;;;;;;5017534;28;20079;-87
2022/12/20 01:17:17;;;;;;;10.88;5.85;;;;;;;;;;5032254;28;20032;-84
2022/12/20 01:19:43;;;;;;;8.70;5.50;;;;;;;;;;5053257;28;20216;-85
2022/12/20 01:22:11;;;;;;;11.45;6.00;;;;;;;;;;5041927;28;20111;-84
2022/12/20 01:24:37;;;;;;;10.80;6.28;;;;;;;;;;5038922;28;20035;-84
2022/12/20 01:27:02;;;;;;;11.68;6.43;;;;;;;;;;5025706;28;20426;-85
2022/12/20 01:29:43;;;;;;;15.52;7.03;;;;;;;;;;5008642;28;20024;-82
2022/12/20 01:32:46;;;;;;;9.23;6.13;;;;;;;;;;5052771;28;20024;-84
2022/12/20 01:35:18;;;;;;;11.43;6.38;;;;;;;;;;5015360;28;20162;-83
2022/12/20 01:37:43;;;;;;;12.70;6.50;;;;;;;;;;5024653;28;20661;-83
2022/12/20 01:40:09;;;;;;;11.32;6.68;;;;;;;;;;5028656;28;20037;-84
2022/12/20 01:42:35;;;;;;;13.65;5.82;;;;;;;;;;5070033;22;20064;-85
2022/12/20 01:45:01;;;;;;;10.30;6.05;;;;;;;;;;5013584;28;20037;-86
2022/12/20 01:50:50;;;;;;;16.65;6.10;;;;;;;;;;5022737;28;20169;-84
2022/12/20 01:53:18;;;;;;;11.75;6.70;;;;;;;;;;5015547;28;20013;-82
2022/12/20 01:55:46;;;;;;;14.52;6.88;;;;;;;;;;5019842;28;20093;-82
2022/12/20 01:58:13;;;;;;;11.15;6.88;;;;;;;;;;5019205;28;20506;-82
2022/12/20 02:00:38;;;;;;;13.80;6.55;;;;;;;;;;5018305;28;20036;-84
2022/12/20 02:08:57;;;;;;;13.18;6.65;;;;;;;;;;4985037;28;20165;-82
2022/12/20 02:11:41;;;;;;;11.70;6.65;;;;;;;;;;4963599;28;20033;-85
2022/12/20 02:14:25;;;;;;;12.40;6.25;;;;;;;;;;4963524;28;20026;-84
2022/12/20 02:17:26;;;;;;;13.57;5.93;;;;;;;;;;4980884;28;20465;-85
2022/12/20 02:20:10;;;;;;;12.43;7.20;;;;;;;;;;5052594;22;20049;-85
2022/12/20 02:23:31;;;;;;;14.57;6.35;;;;;;;;;;5006481;28;20470;-84
2022/12/20 02:26:14;;;;;;;13.02;6.28;;;;;;;;;;4922200;28;20058;-85
2022/12/20 02:29:17;;;;;;;14.18;6.72;;;;;;;;;;5016168;28;20056;-89
2022/12/20 02:32:07;;;;;;;13.02;6.85;;;;;;;;;;4990262;28;20049;-83
2022/12/20 02:34:36;;;;;;;11.80;6.60;;;;;;;;;;5001341;28;20082;-83
2022/12/20 02:37:01;;;;;;;11.05;5.82;;;;;;;;;;5010620;28;20111;-82
2022/12/20 02:39:29;;;;;;;11.23;6.50;;;;;;;;;;4994149;28;20551;-83
2022/12/20 02:42:18;;;;;;;12.93;6.88;;;;;;;;;;4996730;28;20029;-82
2022/12/20 02:45:14;;;;;;;13.93;5.65;;;;;;;;;;5012368;28;20067;-82
2022/12/20 02:47:47;;;;;;;7.95;5.72;;;;;;;;;;5014770;28;20100;-82
2022/12/20 02:50:16;;;;;;;17.25;6.70;;;;;;;;;;5018716;28;20075;-83
2022/12/20 02:52:41;;;;;;;13.15;6.07;;;;;;;;;;4995273;28;20408;-83
2022/12/20 02:55:07;;;;;;;11.25;5.63;;;;;;;;;;5003616;28;20056;-84
2022/12/20 02:57:49;;;;;;;10.25;5.57;;;;;;;;;;5008833;28;20033;-83
2022/12/20 03:00:20;;;;;;;11.10;6.57;;;;;;;;;;5010685;28;20037;-81
2022/12/20 03:05:34;;;;;;;12.93;6.10;;;;;;;;;;5025526;28;20060;-85
2022/12/20 03:07:59;;;;;;;9.57;5.95;;;;;;;;;;5010045;28;20140;-84
2022/12/20 03:10:25;;;;;;;12.85;6.15;;;;;;;;;;5010860;28;20025;-84
2022/12/20 03:12:51;;;;;;;12.85;5.35;;;;;;;;;;5026533;28;20592;-83
2022/12/20 03:15:16;;;;;;;9.07;5.53;;;;;;;;;;5011366;28;20028;-83
2022/12/20 03:17:42;;;;;;;10.52;6.38;;;;;;;;;;5028119;28;20032;-84
2022/12/20 03:20:10;;;;;;;14.82;6.72;;;;;;;;;;5010540;28;20033;-83
2022/12/20 03:22:35;;;;;;;13.55;6.97;;;;;;;;;;5012976;28;20028;-83
2022/12/20 03:25:01;;;;;;;9.55;5.78;;;;;;;;;;5032966;28;20037;-83
2022/12/20 03:27:27;;;;;;;11.85;5.72;;;;;;;;;;5034952;28;20090;-83
2022/12/20 03:29:52;;;;;;;15.05;6.45;;;;;;;;;;5019058;28;20051;-83
2022/12/20 03:32:18;;;;;;;10.25;5.63;;;;;;;;;;5034168;28;20041;-82
2022/12/20 03:34:43;;;;;;;11.27;6.10;;;;;;;;;;5039413;28;20029;-81
2022/12/20 03:37:09;;;;;;;10.30;5.05;;;;;;;;;;5043756;28;20036;-82
2022/12/20 03:39:34;;;;;;;10.60;5.50;;;;;;;;;;5042846;28;20085;-83
2022/12/20 03:41:59;;;;;;;9.40;4.78;;;;;;;;;;5044082;28;20040;-83
2022/12/20 03:44:25;;;;;;;9.45;5.93;;;;;;;;;;5019802;28;20128;-82
2022/12/20 03:46:50;;;;;;;8.60;5.40;;;;;;;;;;5017229;28;20624;-82
2022/12/20 03:49:15;;;;;;;11.90;5.45;;;;;;;;;;5037197;28;20028;-83
2022/12/20 03:51:41;;;;;;;11.57;5.68;;;;;;;;;;5023291;28;20040;-82
2022/12/20 03:54:06;;;;;;;10.07;5.93;;;;;;;;;;5043607;28;20025;-82
2022/12/20 03:56:31;;;;;;;9.52;5.97;;;;;;;;;;5042816;28;20190;-83
2022/12/20 03:58:57;;;;;;;9.63;5.60;;;;;;;;;;5023775;28;20781;-83
2022/12/20 04:01:27;;;;;;;14.80;7.03;;;;;;;;;;5023695;28;20028;-81
2022/12/20 04:03:53;;;;;;;11.23;6.30;;;;;;;;;;5041573;28;20039;-81
2022/12/20 04:06:20;;;;;;;10.60;5.55;;;;;;;;;;5043079;28;20033;-84
2022/12/20 04:08:46;;;;;;;12.05;6.03;;;;;;;;;;5048603;28;20033;-83
2022/12/20 04:11:18;;;;;;;10.35;6.15;;;;;;;;;;5047518;28;20110;-84
2022/12/20 04:13:44;;;;;;;12.60;6.18;;;;;;;;;;5047373;28;20028;-83
2022/12/20 04:16:10;;;;;;;13.98;6.20;;;;;;;;;;5046487;28;20044;-82
2022/12/20 04:18:35;;;;;;;15.13;6.75;;;;;;;;;;5046368;28;20154;-81
2022/12/20 04:21:03;;;;;;;11.77;6.15;;;;;;;;;;5033817;28;20025;-83
2022/12/20 04:23:28;;;;;;;14.02;7.03;;;;;;;;;;5018175;28;20388;-85
2022/12/20 04:25:54;;;;;;;12.80;6.28;;;;;;;;;;5034883;28;20048;-81
2022/12/20 04:28:19;;;;;;;15.40;6.43;;;;;;;;;;5032014;28;20430;-83
2022/12/20 04:30:44;;;;;;;11.50;6.35;;;;;;;;;;5026324;28;20025;-83
2022/12/20 04:33:10;;;;;;;13.60;6.82;;;;;;;;;;5031791;28;20036;-80
2022/12/20 04:35:36;;;;;;;11.07;5.68;;;;;;;;;;5015067;28;20044;-82
2022/12/20 04:38:02;;;;;;;10.52;5.95;;;;;;;;;;5030227;28;20029;-81
2022/12/20 04:40:28;;;;;;;15.05;6.45;;;;;;;;;;5028937;28;20432;-82
2022/12/20 04:42:53;;;;;;;15.30;7.25;;;;;;;;;;5028690;28;20041;-81
2022/12/20 04:45:18;;;;;;;9.88;6.10;;;;;;;;;;5031856;28;20037;-81
2022/12/20 04:47:44;;;;;;;11.57;6.07;;;;;;;;;;5032787;28;20028;-81
2022/12/20 04:50:09;;;;;;;10.57;6.50;;;;;;;;;;5031680;28;20030;-82
2022/12/20 04:55:18;;;;;;;11.13;5.85;;;;;;;;;;5033700;28;20410;-83
2022/12/20 04:57:44;;;;;;;9.90;5.88;;;;;;;;;;5033163;28;20029;-81
2022/12/20 05:00:10;;;;;;;10.85;5.28;;;;;;;;;;5033432;28;20037;-82
2022/12/20 05:02:35;;;;;;;9.60;5.80;;;;;;;;;;5037310;28;20029;-82
2022/12/20 05:05:00;;;;;;;11.20;6.22;;;;;;;;;;5016598;28;20032;-82
2022/12/20 05:07:26;;;;;;;10.27;6.35;;;;;;;;;;5017881;28;20510;-83
2022/12/20 05:09:51;;;;;;;11.45;6.95;;;;;;;;;;5035543;28;20032;-83
2022/12/20 05:12:17;;;;;;;13.77;6.80;;;;;;;;;;5035844;28;20113;-83
2022/12/20 05:14:42;;;;;;;10.63;6.30;;;;;;;;;;5017723;28;20033;-84
2022/12/20 05:17:08;;;;;;;11.68;6.57;;;;;;;;;;5031958;28;20033;-83
2022/12/20 05:19:34;;;;;;;10.20;6.55;;;;;;;;;;5014065;28;20488;-84
2022/12/20 05:27:27;;;;;;;12.07;6.20;;;;;;;;;;5034302;28;20098;-81
2022/12/20 05:29:52;;;;;;;10.48;5.30;;;;;;;;;;5032455;28;20025;-83
2022/12/20 05:32:18;;;;;;;11.90;6.30;;;;;;;;;;5015012;28;20821;-82
2022/12/20 05:34:43;;;;;;;9.65;5.55;;;;;;;;;;5018808;28;20029;-82
2022/12/20 05:37:08;;;;;;;11.05;5.95;;;;;;;;;;5054128;28;20142;-82
2022/12/20 05:39:34;;;;;;;11.88;5.63;;;;;;;;;;5052511;28;20072;-82
2022/12/20 05:42:00;;;;;;;12.38;6.15;;;;;;;;;;5051168;28;20060;-83
2022/12/20 05:45:02;;;;;;;10.20;5.38;;;;;;;;;;5022150;28;20048;-82
2022/12/20 05:47:27;;;;;;;13.37;5.60;;;;;;;;;;5026140;28;20039;-83
2022/12/20 05:49:52;;;;;;;11.20;6.28;;;;;;;;;;5020996;28;20017;-83
2022/12/20 05:52:18;;;;;;;11.40;6.03;;;;;;;;;;5040740;28;20025;-83
2022/12/20 05:54:43;;;;;;;11.93;5.85;;;;;;;;;;5038778;28;20040;-84
2022/12/20 05:57:08;;;;;;;13.43;6.05;;;;;;;;;;5037762;28;20035;-83
2022/12/20 05:59:34;;;;;;;11.38;6.03;;;;;;;;;;5021149;28;20032;-83
2022/12/20 06:01:59;;;;;;;16.65;6.22;;;;;;;;;;5020309;28;20040;-83
2022/12/20 06:04:25;;;;;;;11.32;5.25;;;;;;;;;;5037149;28;20029;-84
2022/12/20 06:06:51;;;;;;;9.20;4.55;;;;;;;;;;5035232;28;20099;-83
2022/12/20 06:09:16;;;;;;;9.48;5.43;;;;;;;;;;5035059;28;20025;-82
2022/12/20 06:11:41;;;;;;;11.73;5.43;;;;;;;;;;5036063;28;20103;-83
2022/12/20 06:14:07;;;;;;;9.77;4.72;;;;;;;;;;5019129;28;20032;-83
2022/12/20 06:16:32;;;;;;;9.10;5.63;;;;;;;;;;5036522;28;20090;-83
2022/12/20 06:18:57;;;;;;;11.73;5.47;;;;;;;;;;5018216;28;20405;-83
2022/12/20 06:21:23;;;;;;;9.00;5.10;;;;;;;;;;5035129;28;20036;-83
2022/12/20 06:23:48;;;;;;;11.43;5.43;;;;;;;;;;5015287;28;20750;-83
2022/12/20 06:26:14;;;;;;;9.13;5.38;;;;;;;;;;5031569;28;20120;-83
2022/12/20 06:28:41;;;;;;;9.30;5.18;;;;;;;;;;5033989;28;20032;-83
2022/12/20 06:31:09;;;;;;;9.60;5.07;;;;;;;;;;5026594;28;20033;-83
2022/12/20 06:33:35;;;;;;;8.48;4.95;;;;;;;;;;5021258;28;20017;-83
2022/12/20 06:36:00;;;;;;;10.75;5.53;;;;;;;;;;5023349;28;20056;-83
2022/12/20 06:38:25;;;;;;;11.00;5.60;;;;;;;;;;5034110;28;20052;-83
2022/12/20 06:40:51;;;;;;;15.82;4.75;;;;;;;;;;5056929;28;20087;-83
2022/12/20 06:43:16;;;;;;;9.55;5.38;;;;;;;;;;5051009;28;20079;-84
2022/12/20 06:45:42;;;;;;;8.82;4.68;;;;;;;;;;5041241;28;20029;-84
2022/12/20 06:48:07;;;;;;;7.40;4.60;;;;;;;;;;5044981;28;20023;-84
2022/12/20 06:50:33;;;;;;;10.10;5.32;;;;;;;;;;5028454;28;20056;-84
2022/12/20 06:52:58;;;;;;;7.63;4.45;;;;;;;;;;5046469;28;20048;-84
2022/12/20 06:55:24;;;;;;;7.85;4.70;;;;;;;;;;5034258;28;20031;-83
2022/12/20 06:57:49;;;;;;;9.50;4.47;;;;;;;;;;5056231;28;20036;-84
2022/12/20 07:00:15;;;;;;;10.82;5.72;;;;;;;;;;5038840;28;20609;-84
2022/12/20 07:02:40;;;;;;;10.32;5.45;;;;;;;;;;5022050;28;20025;-82
2022/12/20 07:05:06;;;;;;;10.38;5.75;;;;;;;;;;5022010;28;20115;-85
2022/12/20 07:07:32;;;;;;;10.80;4.43;;;;;;;;;;5019438;28;20018;-85
2022/12/20 07:09:58;;;;;;;8.25;4.57;;;;;;;;;;5040199;28;20475;-86
2022/12/20 07:12:23;;;;;;;8.98;4.43;;;;;;;;;;5027004;28;20483;-85
2022/12/20 07:14:48;;;;;;;6.57;4.28;;;;;;;;;;5053405;28;20028;-84
2022/12/20 07:17:14;;;;;;;10.10;5.70;;;;;;;;;;5051244;28;20125;-86
2022/12/20 07:19:39;;;;;;;7.53;5.13;;;;;;;;;;5020826;28;20048;-84
2022/12/20 07:22:05;;;;;;;9.52;4.93;;;;;;;;;;5026494;28;20474;-83
2022/12/20 07:24:31;;;;;;;8.88;5.10;;;;;;;;;;5026933;28;20042;-86
2022/12/20 07:26:57;;;;;;;6.18;4.03;;;;;;;;;;5025991;28;20025;-85
2022/12/20 07:29:22;;;;;;;6.18;4.00;;;;;;;;;;5040301;28;20471;-89
2022/12/20 07:31:48;;;;;;;9.38;5.20;;;;;;;;;;5027449;28;20021;-85
2022/12/20 07:34:13;;;;;;;11.50;4.82;;;;;;;;;;5026823;28;20446;-84
2022/12/20 07:36:38;;;;;;;7.45;5.43;;;;;;;;;;5026625;28;20025;-84
2022/12/20 07:39:04;;;;;;;8.57;4.93;;;;;;;;;;5026927;28;20241;-83
2022/12/20 07:41:29;;;;;;;11.93;5.25;;;;;;;;;;5025492;28;20037;-83
2022/12/20 07:43:57;;;;;;;10.15;4.55;;;;;;;;;;5031997;28;20029;-84
2022/12/20 07:46:22;;;;;;;9.20;5.05;;;;;;;;;;5043505;28;20071;-83
2022/12/20 07:48:47;;;;;;;8.38;4.82;;;;;;;;;;5036382;28;20020;-83
2022/12/20 07:51:28;;;;;;;6.97;4.63;;;;;;;;;;5038266;28;20016;-83
2022/12/20 07:54:01;;;;;;;8.40;4.40;;;;;;;;;;5054980;28;20495;-84
2022/12/20 07:56:27;;;;;;;7.38;4.68;;;;;;;;;;5034014;28;20025;-84
2022/12/20 07:58:58;;;;;;;8.52;4.43;;;;;;;;;;5050230;28;20238;-84
2022/12/20 08:01:26;;;;;;;9.88;4.82;;;;;;;;;;5044118;28;20025;-83
2022/12/20 08:03:58;;;;;;;11.05;4.65;;;;;;;;;;5065604;28;20089;-85
2022/12/20 08:06:23;;;;;;;;;;;;;;;;;;5066560;28;20031;-84
2022/12/20 08:08:53;;;;;;;7.60;5.07;;;;;;;;;;5045998;28;19991;-85
2022/12/20 08:11:23;;;;;;;7.68;4.88;;;;;;;;;;5067584;28;20044;-85
2022/12/20 08:13:50;;;;;;;8.38;5.18;;;;;;;;;;5070109;28;20080;-83
2022/12/20 08:16:15;;;;;;;11.40;5.05;;;;;;;;;;5075205;28;20029;-84
2022/12/20 08:18:41;;;;;;;10.52;4.95;;;;;;;;;;5057629;28;20058;-83
2022/12/20 08:21:07;;;;;;;9.20;4.88;;;;;;;;;;5056535;28;20025;-83
2022/12/20 08:23:32;;;;;;;7.70;4.57;;;;;;;;;;5039478;28;20028;-82
2022/12/20 08:26:01;;;;;;;12.77;5.57;;;;;;;;;;5037886;28;20025;-83
2022/12/20 08:28:26;;;;;;;10.95;6.00;;;;;;;;;;5036736;28;20051;-83
2022/12/20 08:30:52;;;;;;;7.50;4.82;;;;;;;;;;5055455;28;20112;-83
2022/12/20 08:33:18;;;;;;;7.97;4.40;;;;;;;;;;5037160;28;20021;-83
2022/12/20 08:35:44;;;;;;;6.82;4.40;;;;;;;;;;5056918;28;20016;-83
2022/12/20 08:38:09;;;;;;;7.68;4.20;;;;;;;;;;5055904;28;20032;-82
2022/12/20 08:40:34;;;;;;;11.18;4.10;;;;;;;;;;5038634;28;20033;-83
2022/12/20 08:43:00;;;;;;;9.73;3.67;;;;;;;;;;5038152;28;20367;-83
2022/12/20 08:45:25;;;;;;;6.70;4.05;;;;;;;;;;5038926;28;20083;-83
2022/12/20 08:47:52;;;;;;;10.93;4.00;;;;;;;;;;5037850;28;20116;-82
2022/12/20 08:50:18;;;;;;;12.40;4.68;;;;;;;;;;5054782;28;20013;-82
2022/12/20 08:52:43;;;;;;;7.43;3.97;;;;;;;;;;5037475;28;20067;-82
2022/12/20 08:55:09;;;;;;;11.02;4.30;;;;;;;;;;5052946;28;20055;-82
2022/12/20 08:57:34;;;;;;;8.15;4.00;;;;;;;;;;5036219;28;20029;-82
2022/12/20 08:59:59;;;;;;;6.18;3.50;;;;;;;;;;5054123;28;20017;-83
2022/12/20 09:02:25;;;;;;;9.75;4.05;;;;;;;;;;5037642;28;20044;-84
2022/12/20 09:04:51;;;;;;;10.23;4.03;;;;;;;;;;5055752;28;20021;-83
2022/12/20 09:07:16;;;;;;;6.22;3.83;;;;;;;;;;5056135;28;20021;-84
2022/12/20 09:09:41;;;;;;;6.63;4.07;;;;;;;;;;5038848;28;20034;-84
2022/12/20 09:12:07;;;;;;;5.93;3.90;;;;;;;;;;5056227;28;20010;-84
2022/12/20 09:14:32;;;;;;;6.75;4.30;;;;;;;;;;5055780;28;20022;-84
2022/12/20 09:16:57;;;;;;;7.38;3.55;;;;;;;;;;5066089;28;20092;-84
2022/12/20 09:19:23;;;;;;;9.75;4.53;;;;;;;;;;5051842;28;20017;-85
2022/12/20 09:21:48;;;;;;;9.77;3.67;;;;;;;;;;5059320;28;20041;-83
2022/12/20 09:24:13;;;;;;;8.07;3.88;;;;;;;;;;5058410;28;20017;-84
2022/12/20 09:26:39;;;;;;;6.82;4.05;;;;;;;;;;5059353;28;20025;-85
2022/12/20 09:29:05;;;;;;;5.45;2.80;;;;;;;;;;5047486;28;20315;-86
2022/12/20 09:31:30;;;;;;;10.07;4.13;;;;;;;;;;5072301;28;20008;-83
2022/12/20 09:33:57;;;;;;;8.68;3.67;;;;;;;;;;5074725;28;20009;-86
2022/12/20 09:36:24;;;;;;;4.75;3.53;;;;;;;;;;5061996;28;20056;-84
2022/12/20 09:38:50;;;;;;;6.57;3.63;;;;;;;;;;5061457;28;20021;-84
2022/12/20 09:41:24;;;;;;;6.80;3.92;;;;;;;;;;5076557;28;20025;-84
2022/12/20 09:43:57;;;;;;;7.68;3.92;;;;;;;;;;5053511;28;20092;-83
2022/12/20 09:46:24;;;;;;;10.65;3.75;;;;;;;;;;5062974;28;20085;-83
2022/12/20 09:48:50;;;;;;;4.75;3.20;;;;;;;;;;5066294;28;20020;-83
2022/12/20 09:51:25;;;;;;;7.05;3.80;;;;;;;;;;5060122;28;20044;-84
2022/12/20 09:54:29;;;;;;;5.00;3.60;;;;;;;;;;5078891;28;20070;-84
2022/12/20 09:57:19;;;;;;;5.95;3.50;;;;;;;;;;5062447;28;20100;-86
2022/12/20 09:59:45;;;;;;;7.60;4.00;;;;;;;;;;5061190;28;20051;-85
2022/12/20 10:02:12;;;;;;;6.65;3.75;;;;;;;;;;5077950;28;20013;-86
2022/12/20 10:04:38;;;;;;;8.50;3.20;;;;;;;;;;5077546;28;20028;-84
2022/12/20 10:07:41;;;;;;;8.32;3.70;;;;;;;;;;5060030;28;20025;-86
2022/12/20 10:10:18;;;;;;;5.35;3.22;;;;;;;;;;5007924;28;20030;-86
2022/12/20 10:13:02;;;;;;;6.22;3.70;;;;;;;;;;5068091;28;20089;-86
2022/12/20 10:15:35;;;;;;;8.60;3.83;;;;;;;;;;5071869;28;20043;-85
2022/12/20 10:18:38;;;;;;;9.13;3.95;;;;;;;;;;5057923;28;20032;-86
2022/12/20 10:21:16;;;;;;;7.05;3.65;;;;;;;;;;5065366;28;20089;-84
2022/12/20 10:23:53;;;;;;;7.05;3.58;;;;;;;;;;5058372;28;20037;-85
2022/12/20 10:26:21;;;;;;;11.48;3.88;;;;;;;;;;5053938;28;20025;-85
2022/12/20 10:28:46;;;;;;;5.78;3.55;;;;;;;;;;5068289;28;20100;-85
2022/12/20 10:31:15;;;;;;;7.13;3.58;;;;;;;;;;5060085;28;20028;-85
2022/12/20 10:33:41;;;;;;;7.35;3.83;;;;;;;;;;5035346;28;20041;-86
2022/12/20 10:36:31;;;;;;;8.30;3.78;;;;;;;;;;5035379;28;20025;-86
2022/12/20 10:39:03;;;;;;;9.73;3.33;;;;;;;;;;5044137;28;20031;-86
2022/12/20 10:41:50;;;;;;;;;;;;;;;;;;5054139;28;20453;-85
2022/12/20 10:44:19;;;;;;;7.90;3.78;;;;;;;;;;5058288;28;19936;-86
2022/12/20 10:47:00;;;;;;;7.82;3.40;;;;;;;;;;5040336;28;20025;-85
2022/12/20 10:50:06;;;;;;;5.70;3.40;;;;;;;;;;5047859;28;20016;-86
2022/12/20 10:52:31;;;;;;;8.88;3.28;;;;;;;;;;5060507;28;20097;-85
2022/12/20 10:55:37;;;;;;;6.65;3.55;;;;;;;;;;5062156;28;20063;-85
2022/12/20 11:08:29;;;;;;;8.93;4.90;;;;;;;;;;5645357;22;20052;-84
2022/12/20 11:11:15;;;;;;;7.47;4.68;;;;;;;;;;5067457;28;20036;-84
2022/12/20 11:13:41;;;;;;;8.88;4.15;;;;;;;;;;5042584;28;20604;-84
2022/12/20 11:16:39;;;;;;;6.53;4.07;;;;;;;;;;5041739;28;20021;-84
2022/12/20 11:19:29;;;;;;;8.30;4.45;;;;;;;;;;5041316;28;20029;-85
2022/12/20 11:22:27;;;;;;;9.18;4.80;;;;;;;;;;5062185;28;20081;-84
2022/12/20 11:25:11;;;;;;;7.25;4.18;;;;;;;;;;5061091;28;20048;-84
2022/12/20 11:27:49;;;;;;;8.88;4.57;;;;;;;;;;5027000;28;20025;-84
2022/12/20 11:30:28;;;;;;;12.63;5.07;;;;;;;;;;5050128;28;20029;-85
2022/12/20 11:33:22;;;;;;;9.88;4.45;;;;;;;;;;5065427;28;20035;-85
2022/12/20 11:35:54;;;;;;;14.55;4.95;;;;;;;;;;5045650;28;20047;-83
2022/12/20 11:38:31;;;;;;;7.20;4.18;;;;;;;;;;5062770;28;20033;-85
2022/12/20 11:41:10;;;;;;;9.10;4.88;;;;;;;;;;5057108;28;20035;-84
2022/12/20 11:43:56;;;;;;;7.97;4.07;;;;;;;;;;5034431;28;20131;-86
2022/12/20 11:46:24;;;;;;;6.05;3.95;;;;;;;;;;5037856;28;20028;-85
2022/12/20 11:49:28;;;;;;;6.65;3.97;;;;;;;;;;5048076;28;20475;-85
2022/12/20 11:52:20;;;;;;;7.85;4.45;;;;;;;;;;5061478;28;20017;-84
2022/12/20 11:54:49;;;;;;;7.13;3.33;;;;;;;;;;5062715;28;20024;-87
2022/12/20 11:57:49;;;;;;;7.53;3.67;;;;;;;;;;5040743;28;20299;-84
2022/12/20 12:00:16;;;;;;;5.18;3.42;;;;;;;;;;5040149;28;20025;-84
2022/12/20 12:02:50;;;;;;;10.50;4.05;;;;;;;;;;5060823;28;20029;-84
2022/12/20 12:05:22;;;;;;;8.55;3.72;;;;;;;;;;5055661;28;20541;-84
2022/12/20 12:07:54;;;;;;;9.45;3.67;;;;;;;;;;5072377;28;20063;-85
2022/12/20 12:10:28;;;;;;;6.38;4.00;;;;;;;;;;5058298;28;20020;-84
2022/12/20 12:13:06;;;;;;;11.02;4.30;;;;;;;;;;5028787;28;20088;-84
2022/12/20 12:16:09;;;;;;;13.52;5.28;;;;;;;;;;5050516;28;20386;-84
2022/12/20 12:18:38;;;;;;;7.10;4.00;;;;;;;;;;4974195;28;20178;-84
2022/12/20 12:21:04;;;;;;;13.27;4.05;;;;;;;;;;4972325;28;20490;-84
2022/12/20 12:24:17;;;;;;;6.05;3.78;;;;;;;;;;5012415;28;20051;-87
2022/12/20 12:26:43;;;;;;;6.05;3.45;;;;;;;;;;5030855;28;20040;-87
2022/12/20 12:29:08;;;;;;;9.93;4.68;;;;;;;;;;5051963;28;20029;-84
2022/12/20 12:32:07;;;;;;;8.35;4.20;;;;;;;;;;5052069;28;20024;-84
2022/12/20 12:35:10;;;;;;;7.32;4.10;;;;;;;;;;5037597;28;20025;-85
2022/12/20 12:38:23;;;;;;;8.98;4.18;;;;;;;;;;5046837;28;20041;-85
2022/12/20 12:41:19;;;;;;;8.32;3.90;;;;;;;;;;4977117;28;20035;-85
2022/12/20 12:43:51;;;;;;;9.13;4.28;;;;;;;;;;4978386;28;20058;-84
2022/12/20 12:46:24;;;;;;;5.80;4.00;;;;;;;;;;5018769;28;20033;-84
2022/12/20 12:49:03;;;;;;;6.07;3.80;;;;;;;;;;5042892;28;20025;-84
2022/12/20 12:51:33;;;;;;;6.38;3.40;;;;;;;;;;5074399;28;20064;-85
2022/12/20 12:54:08;;;;;;;6.85;3.90;;;;;;;;;;5058307;28;20057;-84
2022/12/20 12:56:45;;;;;;;8.10;4.38;;;;;;;;;;5056257;28;20025;-84
2022/12/20 12:59:32;;;;;;;8.05;4.80;;;;;;;;;;5048415;28;20068;-84
2022/12/20 13:02:03;;;;;;;6.70;4.45;;;;;;;;;;5042870;28;20086;-84
2022/12/20 13:04:56;;;;;;;7.20;3.97;;;;;;;;;;5060664;28;20130;-84
2022/12/20 13:07:47;;;;;;;8.55;3.58;;;;;;;;;;5073491;28;20021;-86
2022/12/20 13:10:15;;;;;;;9.68;4.30;;;;;;;;;;5048032;28;20053;-86
2022/12/20 13:12:40;;;;;;;6.88;3.78;;;;;;;;;;5062928;28;20029;-85
2022/12/20 13:18:36;;;;;;;5.97;3.50;;;;;;;;;;5042189;28;20060;-84
2022/12/20 13:21:28;;;;;;;4.95;3.38;;;;;;;;;;5056118;28;20029;-84
2022/12/20 13:24:31;;;;;;;4.93;3.72;;;;;;;;;;5060500;28;20108;-84
2022/12/20 13:26:58;;;;;;;7.65;4.10;;;;;;;;;;5062363;28;20040;-84
2022/12/20 13:29:25;;;;;;;7.93;3.30;;;;;;;;;;5061527;28;20471;-86
2022/12/20 13:31:50;;;;;;;4.82;2.95;;;;;;;;;;5049065;28;20161;-84
2022/12/20 13:34:36;;;;;;;10.43;3.80;;;;;;;;;;5053070;28;20061;-84
2022/12/20 13:37:01;;;;;;;5.05;3.08;;;;;;;;;;5059636;28;20021;-85
2022/12/20 13:39:26;;;;;;;6.97;3.17;;;;;;;;;;5061592;28;20032;-84
2022/12/20 13:42:15;;;;;;;9.23;2.92;;;;;;;;;;5055660;28;20430;-85
2022/12/20 13:44:46;;;;;;;10.57;4.00;;;;;;;;;;5060240;28;20072;-84
2022/12/20 13:47:30;;;;;;;7.38;3.60;;;;;;;;;;5042044;28;20017;-84
2022/12/20 13:49:59;;;;;;;8.60;3.70;;;;;;;;;;5044219;28;20120;-86
2022/12/20 13:52:37;;;;;;;11.40;3.80;;;;;;;;;;5060994;28;20071;-86
2022/12/20 13:55:21;;;;;;;6.88;3.33;;;;;;;;;;5040151;28;20029;-83
2022/12/20 13:57:46;;;;;;;6.13;3.30;;;;;;;;;;5060464;28;20021;-81
2022/12/20 14:00:17;;;;;;;6.03;3.63;;;;;;;;;;5057216;28;20438;-82
2022/12/20 14:02:43;;;;;;;5.80;3.20;;;;;;;;;;5022792;28;20772;-82
2022/12/20 14:05:13;;;;;;;8.00;3.50;;;;;;;;;;5043468;28;20024;-81
2022/12/20 14:07:39;;;;;;;11.13;3.72;;;;;;;;;;5071575;28;20047;-82
2022/12/20 14:10:19;;;;;;;7.28;3.70;;;;;;;;;;5049835;28;20025;-81
2022/12/20 14:12:45;;;;;;;5.65;3.50;;;;;;;;;;5039907;28;20040;-83
2022/12/20 14:15:31;;;;;;;8.10;3.58;;;;;;;;;;5063212;28;20025;-83
2022/12/20 14:18:03;;;;;;;5.93;3.72;;;;;;;;;;5076654;28;20071;-82
2022/12/20 14:20:30;;;;;;;;;;;;;;;;;;5072277;28;20031;-83
2022/12/20 14:23:09;;;;;;;5.32;3.33;;;;;;;;;;5041352;28;20402;-82
2022/12/20 14:25:43;;;;;;;6.57;3.55;;;;;;;;;;5040984;28;20092;-83
2022/12/20 14:28:47;;;;;;;8.77;4.43;;;;;;;;;;5039991;28;20032;-83
2022/12/20 14:31:38;;;;;;;6.50;3.50;;;;;;;;;;5046747;28;20114;-83
2022/12/20 14:34:12;;;;;;;6.82;3.88;;;;;;;;;;5054578;28;20108;-84
2022/12/20 14:36:39;;;;;;;8.45;3.90;;;;;;;;;;5055059;28;20609;-84
2022/12/20 14:39:31;;;;;;;5.95;3.53;;;;;;;;;;5056283;28;20033;-84
2022/12/20 14:42:08;;;;;;;7.72;3.58;;;;;;;;;;5056543;28;20037;-84
2022/12/20 14:44:34;;;;;;;6.40;4.13;;;;;;;;;;5063677;28;20036;-83
2022/12/20 14:47:04;;;;;;;7.90;4.00;;;;;;;;;;5055975;28;20032;-83
2022/12/20 14:49:30;;;;;;;7.60;3.90;;;;;;;;;;5055334;28;20032;-83
2022/12/20 14:52:23;;;;;;;4.70;3.58;;;;;;;;;;5070812;28;20028;-83
2022/12/20 14:54:59;;;;;;;;;;;;;;;;;;5029259;28;20643;-83
2022/12/20 14:57:33;;;;;;;6.05;3.80;;;;;;;;;;5043585;28;20018;-83
2022/12/20 15:00:20;;;;;;;5.63;3.17;;;;;;;;;;5057547;28;20053;-83
2022/12/20 15:02:54;;;;;;;6.45;3.33;;;;;;;;;;5020032;28;20380;-83
2022/12/20 15:05:32;;;;;;;10.93;4.28;;;;;;;;;;5055793;28;20025;-83
2022/12/20 15:08:16;;;;;;;13.48;3.75;;;;;;;;;;5039144;28;20033;-84
2022/12/20 15:10:49;;;;;;;6.28;3.70;;;;;;;;;;5055654;28;20025;-82
2022/12/20 15:13:16;;;;;;;4.88;2.95;;;;;;;;;;5052317;28;20030;-82
2022/12/20 15:15:42;;;;;;;5.00;3.40;;;;;;;;;;5037648;28;20059;-82
2022/12/20 15:18:12;;;;;;;8.27;4.07;;;;;;;;;;5055332;28;20104;-81
2022/12/20 15:20:39;;;;;;;8.50;3.78;;;;;;;;;;5054633;28;20382;-81
2022/12/20 15:23:04;;;;;;;6.72;3.20;;;;;;;;;;5060723;28;20123;-82
2022/12/20 15:33:18;;;;;;;8.75;3.95;;;;;;;;;;5048857;28;20064;-83
2022/12/20 15:35:44;;;;;;;8.15;4.30;;;;;;;;;;5065134;28;20028;-82
2022/12/20 15:38:19;;;;;;;7.00;3.38;;;;;;;;;;5074811;28;20001;-80
2022/12/20 15:40:51;;;;;;;11.55;4.13;;;;;;;;;;5067846;28;20036;-80
2022/12/20 15:43:52;;;;;;;6.72;3.65;;;;;;;;;;5023132;28;20104;-82
2022/12/20 15:46:36;;;;;;;6.15;3.50;;;;;;;;;;5020444;28;20026;-82
2022/12/20 15:49:01;;;;;;;7.35;3.80;;;;;;;;;;5037359;28;20025;-83